sensor_id;sensor_type;location;lat;lon;timestamp;temperature;humidity
30473;DHT22;17263;48.160;11.452;2023-03-07T00:01:05;2.90;99.90
30473;DHT22;17263;48.160;11.452;2023-03-07T00:03:32;3.00;99.90
30473;DHT22;17263;48.160;11.452;2023-03-07T00:06:03;3.00;99.90
30473;DHT22;17263;48.160;11.452;2023-03-07T00:08:30;2.90;99.90
30473;DHT22;17263;48.160;11.452;2023-03-07T00:11:00;3.00;99.90
30473;DHT22;17263;48.160;11.452;2023-03-07T00:13:28;3.00;99.90
30473;DHT22;17263;48.160;11.452;2023-03-07T00:16:00;3.00;99.90
30473;DHT22;17263;48.160;11.452;2023-03-07T00:18:26;3.00;99.90
30473;DHT22;17263;48.160;11.452;2023-03-07T00:20:57;3.00;99.90
30473;DHT22;17263;48.160;11.452;2023-03-07T00:23:24;3.00;99.90
30473;DHT22;17263;48.160;11.452;2023-03-07T00:26:01;2.90;99.90
30473;DHT22;17263;48.160;11.452;2023-03-07T00:28:27;3.00;99.90
30473;DHT22;17263;48.160;11.452;2023-03-07T00:30:57;2.90;99.90
30473;DHT22;17263;48.160;11.452;2023-03-07T00:33:23;2.90;99.90
30473;DHT22;17263;48.160;11.452;2023-03-07T00:35:58;2.90;99.90
30473;DHT22;17263;48.160;11.452;2023-03-07T00:38:24;2.80;99.90
30473;DHT22;17263;48.160;11.452;2023-03-07T00:41:05;2.80;99.90
30473;DHT22;17263;48.160;11.452;2023-03-07T00:43:32;2.80;99.90
30473;DHT22;17263;48.160;11.452;2023-03-07T00:45:59;2.90;99.90
30473;DHT22;17263;48.160;11.452;2023-03-07T00:48:26;2.80;99.90
30473;DHT22;17263;48.160;11.452;2023-03-07T00:50:52;2.80;99.90
30473;DHT22;17263;48.160;11.452;2023-03-07T00:53:19;2.80;99.90
30473;DHT22;17263;48.160;11.452;2023-03-07T00:56:00;2.80;99.90
30473;DHT22;17263;48.160;11.452;2023-03-07T00:58:27;2.90;99.90
30473;DHT22;17263;48.160;11.452;2023-03-07T01:00:55;2.80;99.90
30473;DHT22;17263;48.160;11.452;2023-03-07T01:03:23;2.90;99.90
30473;DHT22;17263;48.160;11.452;2023-03-07T01:05:50;2.90;99.90
30473;DHT22;17263;48.160;11.452;2023-03-07T01:08:17;2.80;99.90
30473;DHT22;17263;48.160;11.452;2023-03-07T01:10:44;2.80;99.90
30473;DHT22;17263;48.160;11.452;2023-03-07T01:13:10;2.80;99.90
30473;DHT22;17263;48.160;11.452;2023-03-07T01:15:37;2.80;99.90
30473;DHT22;17263;48.160;11.452;2023-03-07T01:18:04;2.80;99.90
30473;DHT22;17263;48.160;11.452;2023-03-07T01:20:32;2.80;99.90
30473;DHT22;17263;48.160;11.452;2023-03-07T01:22:59;2.80;99.90
30473;DHT22;17263;48.160;11.452;2023-03-07T01:25:26;2.80;99.90
30473;DHT22;17263;48.160;11.452;2023-03-07T01:27:53;2.80;99.90
30473;DHT22;17263;48.160;11.452;2023-03-07T01:30:21;2.80;99.90
30473;DHT22;17263;48.160;11.452;2023-03-07T01:32:52;2.80;99.90
30473;DHT22;17263;48.160;11.452;2023-03-07T01:35:18;2.80;99.90
30473;DHT22;17263;48.160;11.452;2023-03-07T01:37:47;2.80;99.90
30473;DHT22;17263;48.160;11.452;2023-03-07T01:40:14;2.80;99.90
30473;DHT22;17263;48.160;11.452;2023-03-07T01:42:40;2.70;99.90
30473;DHT22;17263;48.160;11.452;2023-03-07T01:47:58;2.80;99.90
30473;DHT22;17263;48.160;11.452;2023-03-07T01:50:24;2.80;99.90
30473;DHT22;17263;48.160;11.452;2023-03-07T01:52:55;2.70;99.90
30473;DHT22;17263;48.160;11.452;2023-03-07T01:55:24;2.80;99.90
30473;DHT22;17263;48.160;11.452;2023-03-07T01:57:53;2.70;99.90
30473;DHT22;17263;48.160;11.452;2023-03-07T02:00:21;2.70;99.90
30473;DHT22;17263;48.160;11.452;2023-03-07T02:05:36;2.80;99.90
30473;DHT22;17263;48.160;11.452;2023-03-07T02:08:06;2.80;99.90
30473;DHT22;17263;48.160;11.452;2023-03-07T02:10:34;2.80;99.90
30473;DHT22;17263;48.160;11.452;2023-03-07T02:13:01;2.80;99.90
30473;DHT22;17263;48.160;11.452;2023-03-07T02:15:28;2.80;99.90
30473;DHT22;17263;48.160;11.452;2023-03-07T02:17:56;2.80;99.90
30473;DHT22;17263;48.160;11.452;2023-03-07T02:23:02;2.70;99.90
30473;DHT22;17263;48.160;11.452;2023-03-07T02:25:55;2.80;99.90
30473;DHT22;17263;48.160;11.452;2023-03-07T02:28:23;2.80;99.90
30473;DHT22;17263;48.160;11.452;2023-03-07T02:31:03;2.80;99.90
30473;DHT22;17263;48.160;11.452;2023-03-07T02:33:30;2.80;99.90
30473;DHT22;17263;48.160;11.452;2023-03-07T02:36:07;2.80;99.90
30473;DHT22;17263;48.160;11.452;2023-03-07T02:38:36;2.80;99.90
30473;DHT22;17263;48.160;11.452;2023-03-07T02:41:05;2.80;99.90
30473;DHT22;17263;48.160;11.452;2023-03-07T02:43:32;2.80;99.90
30473;DHT22;17263;48.160;11.452;2023-03-07T02:45:58;2.80;99.90
30473;DHT22;17263;48.160;11.452;2023-03-07T02:48:24;2.80;99.90
30473;DHT22;17263;48.160;11.452;2023-03-07T02:50:50;2.90;99.90
30473;DHT22;17263;48.160;11.452;2023-03-07T02:53:16;2.90;99.90
30473;DHT22;17263;48.160;11.452;2023-03-07T02:55:42;2.80;99.90
30473;DHT22;17263;48.160;11.452;2023-03-07T02:58:08;2.80;99.90
30473;DHT22;17263;48.160;11.452;2023-03-07T03:00:34;2.80;99.90
30473;DHT22;17263;48.160;11.452;2023-03-07T03:03:01;2.80;99.90
30473;DHT22;17263;48.160;11.452;2023-03-07T03:05:28;2.90;99.90
30473;DHT22;17263;48.160;11.452;2023-03-07T03:07:54;2.90;99.90
30473;DHT22;17263;48.160;11.452;2023-03-07T03:10:20;2.90;99.90
30473;DHT22;17263;48.160;11.452;2023-03-07T03:12:46;3.00;99.90
30473;DHT22;17263;48.160;11.452;2023-03-07T03:15:12;3.00;99.90
30473;DHT22;17263;48.160;11.452;2023-03-07T03:17:38;3.00;99.90
30473;DHT22;17263;48.160;11.452;2023-03-07T03:20:05;3.00;99.90
30473;DHT22;17263;48.160;11.452;2023-03-07T03:22:40;3.10;99.90
30473;DHT22;17263;48.160;11.452;2023-03-07T03:25:08;3.10;99.90
30473;DHT22;17263;48.160;11.452;2023-03-07T03:27:35;3.10;99.90
30473;DHT22;17263;48.160;11.452;2023-03-07T03:30:04;3.10;99.90
30473;DHT22;17263;48.160;11.452;2023-03-07T03:32:31;3.00;99.90
30473;DHT22;17263;48.160;11.452;2023-03-07T03:34:58;3.10;99.90
30473;DHT22;17263;48.160;11.452;2023-03-07T03:37:24;3.10;99.90
30473;DHT22;17263;48.160;11.452;2023-03-07T03:39:52;3.10;99.90
30473;DHT22;17263;48.160;11.452;2023-03-07T03:42:19;3.10;99.90
30473;DHT22;17263;48.160;11.452;2023-03-07T03:44:45;3.10;99.90
30473;DHT22;17263;48.160;11.452;2023-03-07T03:47:11;3.00;99.90
30473;DHT22;17263;48.160;11.452;2023-03-07T03:49:38;3.10;99.90
30473;DHT22;17263;48.160;11.452;2023-03-07T03:52:04;3.10;99.90
30473;DHT22;17263;48.160;11.452;2023-03-07T03:54:30;3.20;99.90
30473;DHT22;17263;48.160;11.452;2023-03-07T03:56:56;3.20;99.90
30473;DHT22;17263;48.160;11.452;2023-03-07T03:59:23;3.20;99.90
30473;DHT22;17263;48.160;11.452;2023-03-07T04:01:49;3.10;99.90
30473;DHT22;17263;48.160;11.452;2023-03-07T04:04:15;3.20;99.90
30473;DHT22;17263;48.160;11.452;2023-03-07T04:06:41;3.10;99.90
30473;DHT22;17263;48.160;11.452;2023-03-07T04:09:08;3.10;99.90
30473;DHT22;17263;48.160;11.452;2023-03-07T04:11:34;3.20;99.90
30473;DHT22;17263;48.160;11.452;2023-03-07T04:14:01;3.20;99.90
30473;DHT22;17263;48.160;11.452;2023-03-07T04:16:27;3.30;99.90
30473;DHT22;17263;48.160;11.452;2023-03-07T04:18:53;3.30;99.90
30473;DHT22;17263;48.160;11.452;2023-03-07T04:21:20;3.30;99.90
30473;DHT22;17263;48.160;11.452;2023-03-07T04:23:47;3.30;99.90
30473;DHT22;17263;48.160;11.452;2023-03-07T04:26:20;3.30;99.90
30473;DHT22;17263;48.160;11.452;2023-03-07T04:28:46;3.30;99.90
30473;DHT22;17263;48.160;11.452;2023-03-07T04:31:22;3.20;99.90
30473;DHT22;17263;48.160;11.452;2023-03-07T04:33:49;3.20;99.90
30473;DHT22;17263;48.160;11.452;2023-03-07T04:36:15;3.30;99.90
30473;DHT22;17263;48.160;11.452;2023-03-07T04:38:42;3.20;99.90
30473;DHT22;17263;48.160;11.452;2023-03-07T04:41:19;3.20;99.90
30473;DHT22;17263;48.160;11.452;2023-03-07T04:43:46;3.00;99.90
30473;DHT22;17263;48.160;11.452;2023-03-07T04:46:14;3.00;99.90
30473;DHT22;17263;48.160;11.452;2023-03-07T04:48:40;3.00;99.90
30473;DHT22;17263;48.160;11.452;2023-03-07T04:51:07;2.90;99.90
30473;DHT22;17263;48.160;11.452;2023-03-07T04:53:33;2.90;99.90
30473;DHT22;17263;48.160;11.452;2023-03-07T04:56:04;2.80;99.90
30473;DHT22;17263;48.160;11.452;2023-03-07T04:58:32;2.80;99.90
30473;DHT22;17263;48.160;11.452;2023-03-07T05:00:59;2.80;99.90
30473;DHT22;17263;48.160;11.452;2023-03-07T05:03:26;2.80;99.90
30473;DHT22;17263;48.160;11.452;2023-03-07T05:05:52;2.70;99.90
30473;DHT22;17263;48.160;11.452;2023-03-07T05:08:18;2.80;99.90
30473;DHT22;17263;48.160;11.452;2023-03-07T05:10:45;2.70;99.90
30473;DHT22;17263;48.160;11.452;2023-03-07T05:13:11;2.70;99.90
30473;DHT22;17263;48.160;11.452;2023-03-07T05:15:37;2.50;99.90
30473;DHT22;17263;48.160;11.452;2023-03-07T05:18:03;2.60;99.90
30473;DHT22;17263;48.160;11.452;2023-03-07T05:20:29;2.50;99.90
30473;DHT22;17263;48.160;11.452;2023-03-07T05:22:55;2.40;99.90
30473;DHT22;17263;48.160;11.452;2023-03-07T05:25:22;2.40;99.90
30473;DHT22;17263;48.160;11.452;2023-03-07T05:27:48;2.40;99.90
30473;DHT22;17263;48.160;11.452;2023-03-07T05:30:14;2.40;99.90
30473;DHT22;17263;48.160;11.452;2023-03-07T05:32:41;2.40;99.90
30473;DHT22;17263;48.160;11.452;2023-03-07T05:35:09;2.30;99.90
30473;DHT22;17263;48.160;11.452;2023-03-07T05:37:35;2.30;99.90
30473;DHT22;17263;48.160;11.452;2023-03-07T05:40:03;2.20;99.90
30473;DHT22;17263;48.160;11.452;2023-03-07T05:42:33;2.20;99.90
30473;DHT22;17263;48.160;11.452;2023-03-07T05:44:59;2.20;99.90
30473;DHT22;17263;48.160;11.452;2023-03-07T05:47:25;2.20;99.90
30473;DHT22;17263;48.160;11.452;2023-03-07T05:49:51;2.30;99.90
30473;DHT22;17263;48.160;11.452;2023-03-07T05:52:17;2.30;99.90
30473;DHT22;17263;48.160;11.452;2023-03-07T05:54:45;2.20;99.90
30473;DHT22;17263;48.160;11.452;2023-03-07T05:57:11;2.20;99.90
30473;DHT22;17263;48.160;11.452;2023-03-07T05:59:37;2.20;99.90
30473;DHT22;17263;48.160;11.452;2023-03-07T06:02:03;2.20;99.90
30473;DHT22;17263;48.160;11.452;2023-03-07T06:04:29;2.20;99.90
30473;DHT22;17263;48.160;11.452;2023-03-07T06:06:55;2.10;99.90
30473;DHT22;17263;48.160;11.452;2023-03-07T06:09:21;2.10;99.90
30473;DHT22;17263;48.160;11.452;2023-03-07T06:11:48;2.10;99.90
30473;DHT22;17263;48.160;11.452;2023-03-07T06:14:14;2.10;99.90
30473;DHT22;17263;48.160;11.452;2023-03-07T06:16:40;2.10;99.90
30473;DHT22;17263;48.160;11.452;2023-03-07T06:19:06;2.10;99.90
30473;DHT22;17263;48.160;11.452;2023-03-07T06:21:32;2.00;99.90
30473;DHT22;17263;48.160;11.452;2023-03-07T06:23:58;2.00;99.90
30473;DHT22;17263;48.160;11.452;2023-03-07T06:26:24;2.00;99.90
30473;DHT22;17263;48.160;11.452;2023-03-07T06:28:50;2.10;99.90
30473;DHT22;17263;48.160;11.452;2023-03-07T06:31:17;2.10;99.90
30473;DHT22;17263;48.160;11.452;2023-03-07T06:33:44;2.20;99.90
30473;DHT22;17263;48.160;11.452;2023-03-07T06:36:12;2.30;99.90
30473;DHT22;17263;48.160;11.452;2023-03-07T06:38:38;2.30;99.90
30473;DHT22;17263;48.160;11.452;2023-03-07T06:41:05;2.40;99.90
30473;DHT22;17263;48.160;11.452;2023-03-07T06:43:32;2.50;99.90
30473;DHT22;17263;48.160;11.452;2023-03-07T06:45:58;2.60;99.90
30473;DHT22;17263;48.160;11.452;2023-03-07T06:48:25;2.80;99.90
30473;DHT22;17263;48.160;11.452;2023-03-07T06:50:51;2.90;99.90
30473;DHT22;17263;48.160;11.452;2023-03-07T06:53:17;3.10;99.90
30473;DHT22;17263;48.160;11.452;2023-03-07T06:55:50;3.30;99.90
30473;DHT22;17263;48.160;11.452;2023-03-07T06:58:17;3.40;99.90
30473;DHT22;17263;48.160;11.452;2023-03-07T07:00:43;3.50;99.90
30473;DHT22;17263;48.160;11.452;2023-03-07T07:03:13;3.60;99.90
30473;DHT22;17263;48.160;11.452;2023-03-07T07:05:40;3.70;99.90
30473;DHT22;17263;48.160;11.452;2023-03-07T07:08:06;3.80;99.90
30473;DHT22;17263;48.160;11.452;2023-03-07T07:10:32;4.00;99.90
30473;DHT22;17263;48.160;11.452;2023-03-07T07:12:58;4.10;99.90
30473;DHT22;17263;48.160;11.452;2023-03-07T07:15:24;4.30;99.90
30473;DHT22;17263;48.160;11.452;2023-03-07T07:17:51;4.50;99.90
30473;DHT22;17263;48.160;11.452;2023-03-07T07:20:17;4.90;99.90
30473;DHT22;17263;48.160;11.452;2023-03-07T07:22:44;5.20;99.90
30473;DHT22;17263;48.160;11.452;2023-03-07T07:25:10;5.40;99.90
30473;DHT22;17263;48.160;11.452;2023-03-07T07:27:36;5.80;99.90
30473;DHT22;17263;48.160;11.452;2023-03-07T07:30:03;6.10;99.90
30473;DHT22;17263;48.160;11.452;2023-03-07T07:32:29;6.30;99.90
30473;DHT22;17263;48.160;11.452;2023-03-07T07:34:55;6.50;99.90
30473;DHT22;17263;48.160;11.452;2023-03-07T07:37:21;6.60;99.90
30473;DHT22;17263;48.160;11.452;2023-03-07T07:39:48;6.80;99.90
30473;DHT22;17263;48.160;11.452;2023-03-07T07:42:14;7.10;99.90
30473;DHT22;17263;48.160;11.452;2023-03-07T07:44:40;7.50;99.90
30473;DHT22;17263;48.160;11.452;2023-03-07T07:47:06;7.80;99.90
30473;DHT22;17263;48.160;11.452;2023-03-07T07:49:32;8.10;99.90
30473;DHT22;17263;48.160;11.452;2023-03-07T07:51:58;8.50;99.90
30473;DHT22;17263;48.160;11.452;2023-03-07T07:54:24;8.80;99.90
30473;DHT22;17263;48.160;11.452;2023-03-07T07:56:50;9.00;99.90
30473;DHT22;17263;48.160;11.452;2023-03-07T07:59:16;9.20;99.80
30473;DHT22;17263;48.160;11.452;2023-03-07T08:01:43;9.30;99.30
30473;DHT22;17263;48.160;11.452;2023-03-07T08:04:09;9.30;99.60
30473;DHT22;17263;48.160;11.452;2023-03-07T08:06:36;9.40;98.00
30473;DHT22;17263;48.160;11.452;2023-03-07T08:09:02;9.50;97.00
30473;DHT22;17263;48.160;11.452;2023-03-07T08:11:30;9.30;96.80
30473;DHT22;17263;48.160;11.452;2023-03-07T08:13:56;9.20;96.60
30473;DHT22;17263;48.160;11.452;2023-03-07T08:16:22;9.10;96.30
30473;DHT22;17263;48.160;11.452;2023-03-07T08:18:51;9.20;95.40
30473;DHT22;17263;48.160;11.452;2023-03-07T08:21:18;8.90;95.60
30473;DHT22;17263;48.160;11.452;2023-03-07T08:23:44;8.70;96.20
30473;DHT22;17263;48.160;11.452;2023-03-07T08:26:10;8.60;95.60
30473;DHT22;17263;48.160;11.452;2023-03-07T08:28:39;8.60;95.60
30473;DHT22;17263;48.160;11.452;2023-03-07T08:31:11;8.70;95.30
30473;DHT22;17263;48.160;11.452;2023-03-07T08:33:37;8.90;94.50
30473;DHT22;17263;48.160;11.452;2023-03-07T08:36:03;9.20;94.10
30473;DHT22;17263;48.160;11.452;2023-03-07T08:38:30;9.50;93.40
30473;DHT22;17263;48.160;11.452;2023-03-07T08:41:00;9.90;93.10
30473;DHT22;17263;48.160;11.452;2023-03-07T08:43:27;10.10;90.90
30473;DHT22;17263;48.160;11.452;2023-03-07T08:45:54;10.10;90.10
30473;DHT22;17263;48.160;11.452;2023-03-07T08:48:20;9.80;90.30
30473;DHT22;17263;48.160;11.452;2023-03-07T08:50:46;9.70;90.40
30473;DHT22;17263;48.160;11.452;2023-03-07T08:53:13;9.40;91.20
30473;DHT22;17263;48.160;11.452;2023-03-07T08:55:39;9.40;91.20
30473;DHT22;17263;48.160;11.452;2023-03-07T08:58:05;9.60;90.40
30473;DHT22;17263;48.160;11.452;2023-03-07T09:00:31;9.70;90.30
30473;DHT22;17263;48.160;11.452;2023-03-07T09:02:57;9.60;89.60
30473;DHT22;17263;48.160;11.452;2023-03-07T09:05:24;9.50;90.00
30473;DHT22;17263;48.160;11.452;2023-03-07T09:07:50;9.50;90.90
30473;DHT22;17263;48.160;11.452;2023-03-07T09:10:16;9.40;90.80
30473;DHT22;17263;48.160;11.452;2023-03-07T09:12:45;9.30;90.70
30473;DHT22;17263;48.160;11.452;2023-03-07T09:15:11;9.20;90.70
30473;DHT22;17263;48.160;11.452;2023-03-07T09:17:37;9.00;90.10
30473;DHT22;17263;48.160;11.452;2023-03-07T09:20:05;8.90;91.00
30473;DHT22;17263;48.160;11.452;2023-03-07T09:22:31;8.80;91.10
30473;DHT22;17263;48.160;11.452;2023-03-07T09:24:57;8.70;91.50
30473;DHT22;17263;48.160;11.452;2023-03-07T09:27:23;8.70;91.30
30473;DHT22;17263;48.160;11.452;2023-03-07T09:29:50;8.70;91.30
30473;DHT22;17263;48.160;11.452;2023-03-07T09:32:16;8.70;91.00
30473;DHT22;17263;48.160;11.452;2023-03-07T09:34:42;8.60;91.10
30473;DHT22;17263;48.160;11.452;2023-03-07T09:37:08;8.50;90.80
30473;DHT22;17263;48.160;11.452;2023-03-07T09:39:35;8.40;90.80
30473;DHT22;17263;48.160;11.452;2023-03-07T09:45:13;8.40;91.00
30473;DHT22;17263;48.160;11.452;2023-03-07T09:52:52;8.50;91.20
30473;DHT22;17263;48.160;11.452;2023-03-07T09:55:20;8.40;90.50
30473;DHT22;17263;48.160;11.452;2023-03-07T09:57:53;8.50;90.80
30473;DHT22;17263;48.160;11.452;2023-03-07T10:00:26;8.60;90.90
30473;DHT22;17263;48.160;11.452;2023-03-07T10:05:50;8.80;90.20
30473;DHT22;17263;48.160;11.452;2023-03-07T10:08:28;8.90;90.00
30473;DHT22;17263;48.160;11.452;2023-03-07T10:17:04;8.90;90.90
30473;DHT22;17263;48.160;11.452;2023-03-07T10:19:48;9.00;90.80
30473;DHT22;17263;48.160;11.452;2023-03-07T10:22:39;9.10;89.50
30473;DHT22;17263;48.160;11.452;2023-03-07T10:25:27;9.00;89.80
30473;DHT22;17263;48.160;11.452;2023-03-07T10:28:18;9.00;88.10
30473;DHT22;17263;48.160;11.452;2023-03-07T10:30:48;9.00;88.10
30473;DHT22;17263;48.160;11.452;2023-03-07T10:33:17;9.00;87.80
30473;DHT22;17263;48.160;11.452;2023-03-07T10:35:50;9.00;89.00
30473;DHT22;17263;48.160;11.452;2023-03-07T10:40:56;9.10;87.20
30473;DHT22;17263;48.160;11.452;2023-03-07T10:43:29;9.10;86.60
30473;DHT22;17263;48.160;11.452;2023-03-07T10:46:14;9.00;87.50
30473;DHT22;17263;48.160;11.452;2023-03-07T10:48:45;9.00;88.00
30473;DHT22;17263;48.160;11.452;2023-03-07T10:53:55;9.00;88.40
30473;DHT22;17263;48.160;11.452;2023-03-07T10:56:22;9.10;88.50
30473;DHT22;17263;48.160;11.452;2023-03-07T10:59:08;9.00;87.30
30473;DHT22;17263;48.160;11.452;2023-03-07T11:01:36;9.00;88.00
30473;DHT22;17263;48.160;11.452;2023-03-07T11:04:05;9.00;88.10
30473;DHT22;17263;48.160;11.452;2023-03-07T11:06:39;9.00;87.10
30473;DHT22;17263;48.160;11.452;2023-03-07T11:11:55;9.00;87.80
30473;DHT22;17263;48.160;11.452;2023-03-07T11:14:23;9.00;88.00
30473;DHT22;17263;48.160;11.452;2023-03-07T11:16:58;9.00;88.20
30473;DHT22;17263;48.160;11.452;2023-03-07T11:19:37;9.00;87.30
30473;DHT22;17263;48.160;11.452;2023-03-07T11:22:17;8.80;87.00
30473;DHT22;17263;48.160;11.452;2023-03-07T11:27:33;8.60;87.10
30473;DHT22;17263;48.160;11.452;2023-03-07T11:32:36;8.60;88.50
30473;DHT22;17263;48.160;11.452;2023-03-07T11:35:06;8.60;88.40
30473;DHT22;17263;48.160;11.452;2023-03-07T11:40:27;8.70;89.40
30473;DHT22;17263;48.160;11.452;2023-03-07T11:50:54;8.50;88.80
30473;DHT22;17263;48.160;11.452;2023-03-07T11:53:31;8.40;88.90
30473;DHT22;17263;48.160;11.452;2023-03-07T12:01:53;8.70;88.00
30473;DHT22;17263;48.160;11.452;2023-03-07T12:09:53;8.60;88.60
30473;DHT22;17263;48.160;11.452;2023-03-07T12:12:46;8.70;88.40
30473;DHT22;17263;48.160;11.452;2023-03-07T12:15:24;8.70;88.20
30473;DHT22;17263;48.160;11.452;2023-03-07T12:23:23;8.50;88.90
30473;DHT22;17263;48.160;11.452;2023-03-07T12:25:56;8.50;89.10
30473;DHT22;17263;48.160;11.452;2023-03-07T12:28:41;8.50;89.70
30473;DHT22;17263;48.160;11.452;2023-03-07T12:31:21;8.60;89.50
30473;DHT22;17263;48.160;11.452;2023-03-07T12:34:10;8.70;89.00
30473;DHT22;17263;48.160;11.452;2023-03-07T12:36:53;8.70;89.00
30473;DHT22;17263;48.160;11.452;2023-03-07T12:39:30;8.80;89.50
30473;DHT22;17263;48.160;11.452;2023-03-07T12:42:03;8.80;90.50
30473;DHT22;17263;48.160;11.452;2023-03-07T12:44:38;8.80;90.50
30473;DHT22;17263;48.160;11.452;2023-03-07T12:47:24;8.90;90.00
30473;DHT22;17263;48.160;11.452;2023-03-07T12:49:59;8.90;89.60
30473;DHT22;17263;48.160;11.452;2023-03-07T12:55:26;8.60;89.90
30473;DHT22;17263;48.160;11.452;2023-03-07T12:58:06;8.50;89.90
30473;DHT22;17263;48.160;11.452;2023-03-07T13:00:50;8.40;90.20
30473;DHT22;17263;48.160;11.452;2023-03-07T13:03:47;8.40;90.50
30473;DHT22;17263;48.160;11.452;2023-03-07T13:06:19;8.50;90.60
30473;DHT22;17263;48.160;11.452;2023-03-07T13:08:49;8.40;91.00
30473;DHT22;17263;48.160;11.452;2023-03-07T13:11:20;8.50;90.10
30473;DHT22;17263;48.160;11.452;2023-03-07T13:13:50;8.60;89.80
30473;DHT22;17263;48.160;11.452;2023-03-07T13:16:44;8.60;89.70
30473;DHT22;17263;48.160;11.452;2023-03-07T13:22:03;8.60;90.00
30473;DHT22;17263;48.160;11.452;2023-03-07T13:24:37;8.70;90.50
30473;DHT22;17263;48.160;11.452;2023-03-07T13:53:49;8.80;90.00
30473;DHT22;17263;48.160;11.452;2023-03-07T13:56:21;8.80;88.60
30473;DHT22;17263;48.160;11.452;2023-03-07T13:58:58;8.80;88.70
30473;DHT22;17263;48.160;11.452;2023-03-07T14:01:35;8.80;88.70
30473;DHT22;17263;48.160;11.452;2023-03-07T14:04:21;8.80;88.90
30473;DHT22;17263;48.160;11.452;2023-03-07T14:09:26;8.80;88.30
30473;DHT22;17263;48.160;11.452;2023-03-07T14:17:21;8.80;88.70
30473;DHT22;17263;48.160;11.452;2023-03-07T14:23:05;8.70;89.10
30473;DHT22;17263;48.160;11.452;2023-03-07T14:26:29;8.70;88.50
30473;DHT22;17263;48.160;11.452;2023-03-07T14:28:50;8.80;88.00
30473;DHT22;17263;48.160;11.452;2023-03-07T14:31:35;8.80;87.80
30473;DHT22;17263;48.160;11.452;2023-03-07T14:37:09;8.90;85.90
30473;DHT22;17263;48.160;11.452;2023-03-07T14:42:38;8.80;86.00
30473;DHT22;17263;48.160;11.452;2023-03-07T14:45:31;8.80;85.50
30473;DHT22;17263;48.160;11.452;2023-03-07T14:48:30;8.90;84.80
30473;DHT22;17263;48.160;11.452;2023-03-07T14:51:20;8.80;84.30
30473;DHT22;17263;48.160;11.452;2023-03-07T14:53:48;8.70;83.00
30473;DHT22;17263;48.160;11.452;2023-03-07T14:56:23;8.70;83.00
30473;DHT22;17263;48.160;11.452;2023-03-07T14:58:55;8.80;82.00
30473;DHT22;17263;48.160;11.452;2023-03-07T15:01:22;8.90;82.20
30473;DHT22;17263;48.160;11.452;2023-03-07T15:03:50;9.00;82.00
30473;DHT22;17263;48.160;11.452;2023-03-07T15:06:22;9.10;80.90
30473;DHT22;17263;48.160;11.452;2023-03-07T15:08:49;9.20;80.70
30473;DHT22;17263;48.160;11.452;2023-03-07T15:13:56;9.20;81.10
30473;DHT22;17263;48.160;11.452;2023-03-07T15:16:24;9.20;80.60
30473;DHT22;17263;48.160;11.452;2023-03-07T15:18:55;9.10;80.50
30473;DHT22;17263;48.160;11.452;2023-03-07T15:21:24;9.00;81.10
30473;DHT22;17263;48.160;11.452;2023-03-07T15:23:56;8.90;81.70
30473;DHT22;17263;48.160;11.452;2023-03-07T15:26:24;8.80;82.60
30473;DHT22;17263;48.160;11.452;2023-03-07T15:28:58;8.70;82.20
30473;DHT22;17263;48.160;11.452;2023-03-07T15:31:29;8.70;82.90
30473;DHT22;17263;48.160;11.452;2023-03-07T15:34:16;8.70;82.50
30473;DHT22;17263;48.160;11.452;2023-03-07T15:36:45;8.60;82.70
30473;DHT22;17263;48.160;11.452;2023-03-07T15:39:32;8.60;82.70
30473;DHT22;17263;48.160;11.452;2023-03-07T15:42:04;8.50;82.90
30473;DHT22;17263;48.160;11.452;2023-03-07T15:44:30;8.50;83.70
30473;DHT22;17263;48.160;11.452;2023-03-07T15:47:02;8.40;83.60
30473;DHT22;17263;48.160;11.452;2023-03-07T15:49:45;8.30;84.20
30473;DHT22;17263;48.160;11.452;2023-03-07T15:54:59;8.10;84.20
30473;DHT22;17263;48.160;11.452;2023-03-07T15:57:30;8.00;84.70
30473;DHT22;17263;48.160;11.452;2023-03-07T16:00:00;8.00;85.50
30473;DHT22;17263;48.160;11.452;2023-03-07T16:02:38;8.00;85.40
30473;DHT22;17263;48.160;11.452;2023-03-07T16:07:46;7.80;85.60
30473;DHT22;17263;48.160;11.452;2023-03-07T16:10:12;7.70;86.40
30473;DHT22;17263;48.160;11.452;2023-03-07T16:12:38;7.60;86.60
30473;DHT22;17263;48.160;11.452;2023-03-07T16:15:16;7.50;86.60
30473;DHT22;17263;48.160;11.452;2023-03-07T16:17:42;7.30;87.00
30473;DHT22;17263;48.160;11.452;2023-03-07T16:20:16;7.20;87.70
30473;DHT22;17263;48.160;11.452;2023-03-07T16:22:43;7.10;88.10
30473;DHT22;17263;48.160;11.452;2023-03-07T16:25:09;7.10;88.50
30473;DHT22;17263;48.160;11.452;2023-03-07T16:27:38;7.00;88.70
30473;DHT22;17263;48.160;11.452;2023-03-07T16:30:20;6.90;89.50
30473;DHT22;17263;48.160;11.452;2023-03-07T16:32:47;6.90;90.00
30473;DHT22;17263;48.160;11.452;2023-03-07T16:35:14;6.80;90.20
30473;DHT22;17263;48.160;11.452;2023-03-07T16:37:41;6.80;90.20
30473;DHT22;17263;48.160;11.452;2023-03-07T16:40:09;6.60;90.50
30473;DHT22;17263;48.160;11.452;2023-03-07T16:42:35;6.50;90.80
30473;DHT22;17263;48.160;11.452;2023-03-07T16:45:04;6.50;91.30
30473;DHT22;17263;48.160;11.452;2023-03-07T16:47:32;6.50;91.50
30473;DHT22;17263;48.160;11.452;2023-03-07T16:49:58;6.30;91.70
30473;DHT22;17263;48.160;11.452;2023-03-07T16:52:25;6.20;92.40
30473;DHT22;17263;48.160;11.452;2023-03-07T16:54:51;6.20;93.00
30473;DHT22;17263;48.160;11.452;2023-03-07T16:57:17;6.00;92.90
30473;DHT22;17263;48.160;11.452;2023-03-07T16:59:46;5.90;93.40
30473;DHT22;17263;48.160;11.452;2023-03-07T17:02:15;5.80;93.60
30473;DHT22;17263;48.160;11.452;2023-03-07T17:04:42;5.70;94.20
30473;DHT22;17263;48.160;11.452;2023-03-07T17:07:17;5.60;94.40
30473;DHT22;17263;48.160;11.452;2023-03-07T17:09:44;5.60;94.90
30473;DHT22;17263;48.160;11.452;2023-03-07T17:12:10;5.50;95.60
30473;DHT22;17263;48.160;11.452;2023-03-07T17:14:37;5.40;95.60
30473;DHT22;17263;48.160;11.452;2023-03-07T17:17:03;5.30;96.20
30473;DHT22;17263;48.160;11.452;2023-03-07T17:19:31;5.30;96.20
30473;DHT22;17263;48.160;11.452;2023-03-07T17:21:59;5.20;96.70
30473;DHT22;17263;48.160;11.452;2023-03-07T17:24:26;5.20;96.90
30473;DHT22;17263;48.160;11.452;2023-03-07T17:26:54;5.10;97.50
30473;DHT22;17263;48.160;11.452;2023-03-07T17:29:32;5.10;97.70
30473;DHT22;17263;48.160;11.452;2023-03-07T17:31:59;5.00;98.00
30473;DHT22;17263;48.160;11.452;2023-03-07T17:34:30;5.00;98.30
30473;DHT22;17263;48.160;11.452;2023-03-07T17:36:57;4.90;98.50
30473;DHT22;17263;48.160;11.452;2023-03-07T17:39:23;4.90;99.10
30473;DHT22;17263;48.160;11.452;2023-03-07T17:41:49;4.80;99.10
30473;DHT22;17263;48.160;11.452;2023-03-07T17:44:15;4.80;99.40
30473;DHT22;17263;48.160;11.452;2023-03-07T17:46:41;4.80;99.80
30473;DHT22;17263;48.160;11.452;2023-03-07T17:49:07;4.80;99.90